Time;durP1;ratioP1;P1;durP2;ratioP2;P2;SDS_P1;SDS_P2;PMS_P1;PMS_P2;Temp;Humidity;BMP_temperature;BMP_pressure;BME280_temperature;BME280_humidity;BME280_pressure;Samples;Min_cycle;Max_cycle;Signal;HPM_P1;HPM_P2
2021/10/20 00:00:39;;;;;;;3.03;2.03;;;;;;;17.52;52.15;95829.81;4981385;28;20401;-67
2021/10/20 00:03:04;;;;;;;2.10;1.90;;;;;;;17.57;51.87;95825.03;4977685;28;20505;-67
2021/10/20 00:05:30;;;;;;;2.22;2.00;;;;;;;17.53;51.90;95810.66;4974056;28;20058;-68
2021/10/20 00:07:55;;;;;;;2.15;1.92;;;;;;;17.49;51.89;95801.66;4988207;28;20038;-68
2021/10/20 00:10:21;;;;;;;2.92;2.08;;;;;;;17.51;51.72;95801.38;4988981;28;20054;-68
2021/10/20 00:12:48;;;;;;;1.98;1.80;;;;;;;17.43;51.92;95789.56;4989191;28;20038;-68
2021/10/20 00:15:16;;;;;;;2.40;2.20;;;;;;;17.48;52.03;95808.19;4987555;28;20042;-67
2021/10/20 00:17:42;;;;;;;3.72;1.73;;;;;;;17.44;52.24;95804.56;4977985;28;20117;-67
2021/10/20 00:20:12;;;;;;;2.90;1.92;;;;;;;17.39;52.38;95796.69;4977520;28;20486;-67
2021/10/20 00:22:38;;;;;;;2.97;2.00;;;;;;;17.39;52.62;95796.69;4988194;28;20084;-67
2021/10/20 00:25:05;;;;;;;2.13;1.85;;;;;;;17.39;52.27;95799.41;4989287;28;20125;-68
2021/10/20 00:27:30;;;;;;;2.30;2.05;;;;;;;17.34;52.42;95800.38;4990131;28;20030;-67
2021/10/20 00:29:56;;;;;;;2.10;1.77;;;;;;;17.27;52.41;95789.38;4989402;28;20030;-67
2021/10/20 00:32:22;;;;;;;1.63;1.50;;;;;;;17.20;52.63;95782.97;4972073;28;20733;-67
2021/10/20 00:34:47;;;;;;;4.18;1.90;;;;;;;17.22;52.65;95781.53;4977504;28;20046;-67
2021/10/20 00:37:12;;;;;;;1.85;1.63;;;;;;;17.13;52.89;95765.47;4986550;28;20515;-67
2021/10/20 00:39:38;;;;;;;1.73;1.63;;;;;;;17.14;52.81;95774.31;4988478;28;20065;-67
2021/10/20 00:42:04;;;;;;;2.08;1.75;;;;;;;17.13;52.75;95770.06;4988699;28;20549;-67
2021/10/20 00:44:44;;;;;;;3.20;1.65;;;;;;;17.07;52.61;95761.41;4990296;28;20040;-69
2021/10/20 00:47:09;;;;;;;2.22;1.65;;;;;;;17.04;52.81;95763.97;4972528;28;20046;-68
2021/10/20 00:49:35;;;;;;;4.85;2.00;;;;;;;17.06;52.75;95767.91;4979048;28;20031;-68
2021/10/20 00:52:00;;;;;;;1.95;1.80;;;;;;;17.04;53.09;95755.91;4988577;28;20066;-68
2021/10/20 00:54:27;;;;;;;1.88;1.60;;;;;;;17.00;53.17;95763.88;4986760;28;20043;-68
2021/10/20 00:56:53;;;;;;;2.10;1.90;;;;;;;16.86;53.25;95739.94;4988674;28;20061;-69
2021/10/20 00:59:18;;;;;;;2.00;1.80;;;;;;;16.89;53.61;95752.72;4990084;28;20058;-69
2021/10/20 01:01:44;;;;;;;3.03;1.80;;;;;;;16.87;53.50;95743.41;4980611;28;20050;-69
2021/10/20 01:04:09;;;;;;;2.47;1.83;;;;;;;16.90;53.33;95756.19;4954381;28;20127;-69
2021/10/20 01:06:34;;;;;;;2.53;1.60;;;;;;;16.91;53.49;95752.41;4980213;28;20053;-69
2021/10/20 01:09:00;;;;;;;2.20;1.70;;;;;;;16.89;53.54;95736.59;4988113;28;20050;-69
2021/10/20 01:11:26;;;;;;;2.45;1.70;;;;;;;16.84;53.30;95728.75;4990274;28;20038;-69
2021/10/20 01:13:52;;;;;;;2.85;1.83;;;;;;;16.89;53.54;95731.22;4986495;28;20069;-69
2021/10/20 01:16:19;;;;;;;7.55;2.08;;;;;;;16.92;53.49;95731.69;4979557;28;20464;-69
2021/10/20 01:18:45;;;;;;;3.28;1.45;;;;;;;16.84;53.42;95720.69;4974454;28;20046;-69
2021/10/20 01:21:21;;;;;;;1.77;1.67;;;;;;;16.85;53.34;95716.09;4977626;28;20090;-73
2021/10/20 01:23:47;;;;;;;2.67;1.70;;;;;;;16.84;53.55;95709.94;4988048;28;20031;-66
2021/10/20 01:26:14;;;;;;;2.88;1.67;;;;;;;16.79;53.42;95704.00;4990118;28;20555;-65
2021/10/20 01:28:40;;;;;;;1.73;1.33;;;;;;;16.83;53.49;95705.66;4986540;28;20496;-67
2021/10/20 01:31:05;;;;;;;1.90;1.75;;;;;;;16.75;53.57;95697.69;4981657;28;20042;-67
2021/10/20 01:33:31;;;;;;;4.75;2.35;;;;;;;16.84;53.44;95707.25;4966715;28;20077;-67
2021/10/20 01:35:56;;;;;;;1.52;1.25;;;;;;;16.81;53.70;95702.53;4975155;28;20471;-68
2021/10/20 01:38:22;;;;;;;1.65;1.50;;;;;;;16.76;53.47;95694.66;4988793;28;20027;-66
2021/10/20 01:40:47;;;;;;;1.45;1.30;;;;;;;16.78;53.54;95695.13;4986153;28;20039;-67
2021/10/20 01:43:12;;;;;;;1.83;1.65;;;;;;;16.73;53.45;95684.56;4987525;28;20038;-66
2021/10/20 01:45:38;;;;;;;2.90;1.90;;;;;;;16.72;53.62;95695.66;4986273;28;20038;-67
2021/10/20 01:48:04;;;;;;;1.63;1.52;;;;;;;16.64;53.83;95681.16;4976293;28;20064;-66
2021/10/20 01:50:29;;;;;;;1.67;1.42;;;;;;;16.68;53.89;95678.59;4969843;28;20030;-68
2021/10/20 01:52:55;;;;;;;1.77;1.42;;;;;;;16.61;53.69;95669.16;4968122;28;20113;-66
2021/10/20 01:55:20;;;;;;;1.58;1.48;;;;;;;16.66;53.88;95684.28;4968379;28;20552;-66
2021/10/20 01:57:46;;;;;;;1.90;1.55;;;;;;;16.56;54.19;95676.63;4968562;28;20066;-66
2021/10/20 02:00:12;;;;;;;2.10;1.50;;;;;;;16.67;54.19;95668.97;4968038;28;20519;-66
2021/10/20 02:02:38;;;;;;;2.00;1.50;;;;;;;16.62;54.01;95665.34;4969640;28;20038;-66
2021/10/20 02:05:05;;;;;;;1.45;1.20;;;;;;;16.64;53.99;95657.78;4976107;28;20049;-68
2021/10/20 02:07:30;;;;;;;2.75;1.45;;;;;;;16.65;54.04;95655.88;4949992;28;20035;-66
2021/10/20 02:09:56;;;;;;;1.60;1.50;;;;;;;16.70;53.98;95657.56;4949479;28;20042;-68
2021/10/20 02:12:21;;;;;;;1.77;1.67;;;;;;;16.69;53.80;95656.00;4949102;28;20115;-66
2021/10/20 02:14:46;;;;;;;1.77;1.60;;;;;;;16.69;54.04;95651.41;4963529;28;20031;-66
2021/10/20 02:17:12;;;;;;;1.75;1.40;;;;;;;16.64;54.11;95646.25;4970325;28;20033;-67
2021/10/20 02:19:37;;;;;;;2.67;1.23;;;;;;;16.67;54.28;95639.41;4978808;28;20058;-66
2021/10/20 02:22:04;;;;;;;1.70;1.60;;;;;;;16.67;54.13;95631.34;4971734;28;20047;-68
2021/10/20 02:24:30;;;;;;;2.60;1.75;;;;;;;16.69;53.79;95639.88;4968008;28;20043;-66
2021/10/20 02:26:55;;;;;;;2.97;2.03;;;;;;;16.69;54.00;95634.53;4967022;28;20054;-66
2021/10/20 02:29:20;;;;;;;2.22;1.60;;;;;;;16.62;54.11;95638.50;4969916;28;20366;-66
2021/10/20 02:31:46;;;;;;;3.28;1.80;;;;;;;16.52;54.52;95620.09;4967887;28;20102;-67
2021/10/20 02:34:20;;;;;;;2.13;1.80;;;;;;;16.59;54.35;95624.97;4968781;28;20035;-66
2021/10/20 02:36:46;;;;;;;3.50;1.80;;;;;;;16.57;54.34;95619.13;4979516;28;20365;-67
2021/10/20 02:39:13;;;;;;;2.22;1.77;;;;;;;16.61;54.45;95622.72;4985989;28;20485;-66
2021/10/20 02:41:38;;;;;;;2.42;2.10;;;;;;;16.59;54.26;95615.00;4988959;28;20575;-66
2021/10/20 02:44:05;;;;;;;1.52;1.42;;;;;;;16.63;54.34;95617.78;4986542;28;20118;-68
2021/10/20 02:46:32;;;;;;;4.85;1.70;;;;;;;16.51;54.26;95598.97;4984969;28;20038;-66
2021/10/20 02:48:58;;;;;;;3.75;1.98;;;;;;;16.60;54.29;95610.41;4977873;28;20430;-66
2021/10/20 02:51:24;;;;;;;1.63;1.33;;;;;;;16.62;54.39;95608.97;4990221;28;20026;-67
2021/10/20 02:53:49;;;;;;;1.70;1.40;;;;;;;16.62;54.07;95606.28;4989282;28;20471;-67
2021/10/20 02:56:17;;;;;;;1.58;1.40;;;;;;;16.60;54.28;95611.19;4992719;28;20392;-67
2021/10/20 02:58:42;;;;;;;1.88;1.40;;;;;;;16.54;54.00;95592.94;4989115;28;20045;-66
2021/10/20 03:01:08;;;;;;;2.80;1.80;;;;;;;16.56;54.45;95602.22;4987212;28;20038;-66
2021/10/20 03:03:33;;;;;;;2.05;1.52;;;;;;;16.59;54.44;95598.91;4970829;28;20054;-67
2021/10/20 03:05:59;;;;;;;2.00;1.73;;;;;;;16.41;54.42;95564.47;4978949;28;20386;-66
2021/10/20 03:08:24;;;;;;;2.55;1.63;;;;;;;16.50;54.47;95578.59;4990275;28;20520;-66
2021/10/20 03:10:50;;;;;;;1.60;1.40;;;;;;;16.54;54.43;95584.88;4990623;28;20046;-67
2021/10/20 03:13:15;;;;;;;4.10;1.63;;;;;;;16.52;54.13;95581.72;4990952;28;20042;-66
2021/10/20 03:15:40;;;;;;;1.23;1.02;;;;;;;16.48;54.32;95570.88;4990934;28;20050;-66
2021/10/20 03:18:06;;;;;;;1.27;1.17;;;;;;;16.47;54.74;95574.66;4981450;28;20042;-66
2021/10/20 03:20:31;;;;;;;1.40;1.30;;;;;;;16.51;54.45;95575.59;4980758;28;20065;-66
2021/10/20 03:22:56;;;;;;;2.05;1.25;;;;;;;16.47;54.49;95563.94;4985559;28;20130;-66
2021/10/20 03:25:22;;;;;;;1.95;1.45;;;;;;;16.53;54.35;95570.69;4989880;28;20385;-66
2021/10/20 03:27:49;;;;;;;1.55;1.40;;;;;;;16.60;54.46;95580.88;4990304;28;20043;-67
2021/10/20 03:30:17;;;;;;;1.60;1.48;;;;;;;16.56;54.09;95569.22;4989659;28;20096;-66
2021/10/20 03:32:42;;;;;;;1.67;1.50;;;;;;;16.53;54.30;95557.25;4976696;28;20064;-67
2021/10/20 03:35:09;;;;;;;3.97;1.65;;;;;;;16.55;53.76;95560.38;4978259;28;20445;-66
2021/10/20 03:37:35;;;;;;;2.35;1.50;;;;;;;16.58;54.08;95561.59;4981468;28;20058;-66
2021/10/20 03:40:01;;;;;;;2.08;1.42;;;;;;;16.59;53.88;95563.97;4989478;28;20038;-67
2021/10/20 03:42:26;;;;;;;5.53;1.70;;;;;;;16.58;54.28;95565.09;4989829;28;20030;-67
2021/10/20 03:44:52;;;;;;;2.03;1.60;;;;;;;16.53;54.16;95549.19;4988313;28;20025;-66
2021/10/20 03:47:20;;;;;;;3.35;1.70;;;;;;;16.52;53.99;95549.50;4983494;28;20093;-66
2021/10/20 03:49:47;;;;;;;3.40;1.58;;;;;;;16.51;54.27;95547.94;4981202;28;20038;-66
2021/10/20 03:52:12;;;;;;;1.20;1.10;;;;;;;16.49;54.27;95545.59;4989640;28;20042;-66
2021/10/20 03:54:38;;;;;;;2.70;1.33;;;;;;;16.48;54.18;95545.91;4987953;28;20054;-66
2021/10/20 03:57:03;;;;;;;1.80;1.63;;;;;;;16.47;54.38;95542.44;4989708;28;20026;-68
2021/10/20 03:59:29;;;;;;;3.45;1.92;;;;;;;16.48;54.30;95541.34;4989640;28;20030;-66
2021/10/20 04:01:54;;;;;;;3.40;1.65;;;;;;;16.51;54.16;95545.25;4983415;28;20045;-66
2021/10/20 04:04:20;;;;;;;2.45;1.40;;;;;;;16.47;54.25;95538.97;4969434;28;20035;-66
2021/10/20 04:06:45;;;;;;;1.27;1.17;;;;;;;16.49;54.51;95536.75;4977996;28;20039;-66
2021/10/20 04:09:11;;;;;;;1.70;1.30;;;;;;;16.43;54.50;95530.81;4986437;28;20042;-66
2021/10/20 04:11:36;;;;;;;2.92;1.20;;;;;;;16.47;54.47;95530.91;4991021;28;20022;-66
2021/10/20 04:14:01;;;;;;;1.88;1.35;;;;;;;16.51;54.38;95527.25;4988821;28;20393;-67
2021/10/20 04:16:27;;;;;;;1.40;1.30;;;;;;;16.48;54.30;95516.38;4987478;28;20595;-66
2021/10/20 04:18:52;;;;;;;1.45;1.33;;;;;;;16.50;54.21;95514.94;4969091;28;20538;-66
2021/10/20 04:21:17;;;;;;;1.88;1.30;;;;;;;16.44;54.28;95505.53;4977490;28;20027;-67
2021/10/20 04:23:43;;;;;;;1.38;1.27;;;;;;;16.54;54.38;95513.16;4984374;28;20026;-66
2021/10/20 04:26:08;;;;;;;1.30;1.20;;;;;;;16.52;54.20;95499.28;4989042;28;20038;-66
2021/10/20 04:28:33;;;;;;;1.63;1.10;;;;;;;16.46;54.29;95486.41;4988728;28;20042;-67
2021/10/20 04:30:59;;;;;;;1.30;1.20;;;;;;;16.57;54.15;95503.66;4987350;28;20049;-66
2021/10/20 04:33:24;;;;;;;3.30;1.40;;;;;;;16.56;54.26;95491.34;4971421;28;20051;-66
2021/10/20 04:35:50;;;;;;;1.95;1.33;;;;;;;16.48;53.92;95474.22;4975219;28;20431;-66
2021/10/20 04:38:16;;;;;;;1.92;1.58;;;;;;;16.56;54.13;95480.59;4982562;28;20033;-67
2021/10/20 04:40:42;;;;;;;2.13;1.52;;;;;;;16.51;54.30;95483.50;4986882;28;20433;-66
2021/10/20 04:43:07;;;;;;;3.03;1.50;;;;;;;16.56;54.11;95469.84;4988374;28;20125;-67
2021/10/20 04:45:33;;;;;;;2.35;1.20;;;;;;;16.59;54.12;95475.34;4988543;28;20085;-67
2021/10/20 04:47:58;;;;;;;1.75;1.30;;;;;;;16.59;54.22;95478.03;4988506;23;20396;-77
2021/10/20 04:50:24;;;;;;;2.15;1.58;;;;;;;16.66;53.82;95484.75;4972320;28;20388;-76
2021/10/20 04:52:49;;;;;;;2.42;1.63;;;;;;;16.63;53.94;95465.53;4970818;28;20038;-79
2021/10/20 04:55:14;;;;;;;1.30;1.20;;;;;;;16.67;53.89;95460.25;4970801;28;20068;-76
2021/10/20 04:57:40;;;;;;;1.92;1.67;;;;;;;16.65;53.64;95446.38;4969346;28;20050;-76
2021/10/20 05:00:06;;;;;;;1.42;1.33;;;;;;;16.69;53.67;95446.50;4970620;28;20058;-76
2021/10/20 05:02:35;;;;;;;1.95;1.27;;;;;;;16.66;53.48;95442.56;4972046;28;20043;-79
2021/10/20 05:05:05;;;;;;;1.75;1.45;;;;;;;16.73;53.64;95445.50;4970105;28;20041;-75
2021/10/20 05:07:31;;;;;;;1.45;1.30;;;;;;;16.53;53.54;95411.44;4957518;28;20507;-76
2021/10/20 05:09:56;;;;;;;1.52;1.40;;;;;;;16.71;53.69;95428.13;4989403;28;20045;-76
2021/10/20 05:12:22;;;;;;;1.55;1.45;;;;;;;16.70;53.81;95437.31;4989666;28;20105;-77
2021/10/20 05:14:47;;;;;;;3.30;1.40;;;;;;;16.68;53.48;95434.16;4989529;28;20457;-78
2021/10/20 05:17:13;;;;;;;3.50;1.33;;;;;;;16.72;53.65;95429.72;4985630;28;20021;-77
2021/10/20 05:19:38;;;;;;;2.40;1.33;;;;;;;16.69;53.73;95414.28;4969851;28;20477;-75
2021/10/20 05:22:06;;;;;;;2.15;1.40;;;;;;;16.58;54.34;95433.50;4977918;28;20031;-75
2021/10/20 05:24:32;;;;;;;2.67;1.17;;;;;;;16.53;54.61;95424.88;4989391;28;20092;-75
2021/10/20 05:26:57;;;;;;;2.95;1.73;;;;;;;16.77;54.13;95429.50;4989637;28;20026;-74
2021/10/20 05:29:23;;;;;;;1.67;1.58;;;;;;;16.53;54.19;95412.25;4990829;28;20538;-76
2021/10/20 05:31:48;;;;;;;2.15;1.40;;;;;;;16.51;54.79;95427.91;4987178;28;20038;-79
2021/10/20 05:34:13;;;;;;;4.55;1.33;;;;;;;16.53;54.26;95432.91;4968356;28;20058;-75
2021/10/20 05:36:39;;;;;;;2.05;1.48;;;;;;;16.54;54.46;95429.91;4978061;28;20039;-76
2021/10/20 05:39:05;;;;;;;1.42;1.10;;;;;;;16.24;55.15;95436.59;4985494;28;20043;-77
2021/10/20 05:41:31;;;;;;;1.75;1.33;;;;;;;16.44;54.87;95446.47;4991026;28;20035;-78
2021/10/20 05:43:57;;;;;;;3.03;1.30;;;;;;;16.60;54.04;95439.31;4989133;28;20039;-76
2021/10/20 05:46:22;;;;;;;2.85;1.35;;;;;;;16.26;54.79;95419.00;4989545;28;20049;-78
2021/10/20 05:48:47;;;;;;;2.63;1.40;;;;;;;16.20;55.35;95436.47;4971126;28;20039;-78
2021/10/20 05:51:13;;;;;;;1.40;1.30;;;;;;;16.79;53.95;95454.94;4970406;28;20035;-77
2021/10/20 05:53:38;;;;;;;2.50;1.30;;;;;;;16.73;53.41;95428.59;4984198;28;20026;-75
2021/10/20 05:56:06;;;;;;;2.95;1.27;;;;;;;16.61;54.21;95448.94;4971339;28;20499;-76
2021/10/20 05:58:31;;;;;;;2.55;1.30;;;;;;;16.51;54.52;95445.91;4988967;28;20045;-74
2021/10/20 06:00:57;;;;;;;1.95;1.30;;;;;;;16.53;54.50;95438.28;4970955;28;20042;-75
2021/10/20 06:03:22;;;;;;;1.95;1.42;;;;;;;16.98;53.68;95451.66;4974560;28;20118;-76
2021/10/20 06:05:48;;;;;;;1.75;1.27;;;;;;;17.11;52.88;95437.09;4972239;28;20062;-75
2021/10/20 06:08:14;;;;;;;2.67;1.52;;;;;;;17.35;52.43;95452.41;4990495;28;20022;-75
2021/10/20 06:10:39;;;;;;;2.13;1.65;;;;;;;17.31;52.24;95423.84;4988053;28;20081;-78
2021/10/20 06:13:05;;;;;;;5.60;2.08;;;;;;;17.33;51.79;95424.28;4989012;28;20038;-77
2021/10/20 06:15:30;;;;;;;3.95;2.20;;;;;;;17.42;51.67;95430.31;4987917;28;20461;-71
2021/10/20 06:17:55;;;;;;;4.00;2.22;;;;;;;17.37;51.70;95425.97;4978661;28;20031;-68
2021/10/20 06:20:21;;;;;;;3.60;2.05;;;;;;;17.47;51.63;95432.78;4972907;28;20107;-69
2021/10/20 06:22:48;;;;;;;5.63;2.13;;;;;;;17.47;51.74;95423.94;4983584;28;20074;-71
2021/10/20 06:25:13;;;;;;;6.65;2.53;;;;;;;17.46;51.74;95428.53;4991934;28;20443;-81
2021/10/20 06:27:40;;;;;;;5.22;3.28;;;;;;;17.48;51.79;95417.41;4991458;28;20030;-72
2021/10/20 06:30:06;;;;;;;2.58;2.20;;;;;;;17.53;51.70;95415.28;4991327;28;20077;-71
2021/10/20 06:32:32;;;;;;;8.27;2.28;;;;;;;17.50;51.58;95407.88;4988351;28;20062;-83
2021/10/20 06:34:57;;;;;;;4.07;2.25;;;;;;;17.59;51.64;95416.59;4972333;28;20086;-69
2021/10/20 06:37:23;;;;;;;5.38;2.50;;;;;;;17.57;51.54;95412.69;4980673;28;20519;-71
2021/10/20 06:39:48;;;;;;;6.05;2.50;;;;;;;17.54;51.65;95405.28;4989746;28;20038;-75
2021/10/20 06:42:14;;;;;;;4.93;2.30;;;;;;;17.61;51.57;95414.38;4992204;28;20038;-83
2021/10/20 06:44:39;;;;;;;4.93;2.50;;;;;;;17.67;51.89;95406.81;4994234;28;20023;-72
2021/10/20 06:47:04;;;;;;;7.38;2.55;;;;;;;17.69;51.58;95396.50;4989033;28;20038;-73
2021/10/20 06:49:30;;;;;;;4.68;2.17;;;;;;;17.77;51.70;95405.59;4972036;28;20400;-74
2021/10/20 06:51:55;;;;;;;4.10;2.10;;;;;;;17.90;51.47;95413.25;4979618;28;20130;-69
2021/10/20 06:54:22;;;;;;;5.60;2.33;;;;;;;17.99;51.38;95409.63;4972231;28;20034;-74
2021/10/20 06:56:49;;;;;;;3.88;2.67;;;;;;;18.10;51.13;95419.53;4988569;28;20027;-75
2021/10/20 06:59:16;;;;;;;3.83;2.72;;;;;;;18.29;50.92;95424.28;4984570;28;20015;-76
2021/10/20 07:01:42;;;;;;;5.63;2.63;;;;;;;18.34;50.74;95420.53;4978908;28;20038;-81
2021/10/20 07:04:08;;;;;;;4.65;1.90;;;;;;;18.27;50.54;95402.31;4969432;28;20039;-68
2021/10/20 07:06:33;;;;;;;5.05;1.98;;;;;;;18.38;50.54;95424.13;4975813;28;20038;-76
2021/10/20 07:08:59;;;;;;;3.50;2.20;;;;;;;18.59;50.46;95437.31;4975695;28;20137;-76
2021/10/20 07:11:25;;;;;;;5.90;1.92;;;;;;;18.63;50.14;95425.50;4974151;28;20110;-76
2021/10/20 07:13:50;;;;;;;5.20;1.50;;;;;;;18.63;49.83;95425.50;4972346;28;20038;-78
2021/10/20 07:16:16;;;;;;;3.67;2.00;;;;;;;18.82;49.52;95446.38;4955514;28;20043;-73
2021/10/20 07:18:42;;;;;;;3.88;2.05;;;;;;;18.25;50.89;95457.63;4970824;28;20122;-73
2021/10/20 07:21:07;;;;;;;7.63;2.15;;;;;;;18.36;50.71;95445.97;4969954;28;20053;-76
2021/10/20 07:23:32;;;;;;;5.63;2.17;;;;;;;18.63;50.54;95454.34;4984625;28;20384;-72
2021/10/20 07:25:58;;;;;;;4.18;1.63;;;;;;;18.75;50.05;95451.59;4990317;28;20027;-73
2021/10/20 07:28:24;;;;;;;3.40;1.90;;;;;;;19.11;49.26;95444.34;4990296;28;20085;-72
2021/10/20 07:30:50;;;;;;;3.78;1.83;;;;;;;19.32;48.82;95441.34;4989706;28;20141;-74
2021/10/20 07:33:15;;;;;;;4.25;2.33;;;;;;;19.45;48.43;95440.09;4980743;28;20129;-72
2021/10/20 07:35:41;;;;;;;5.05;2.40;;;;;;;19.55;48.22;95436.84;4972864;28;20469;-75
2021/10/20 07:38:06;;;;;;;5.65;1.90;;;;;;;19.61;48.21;95427.38;4978116;28;20117;-72
2021/10/20 07:40:32;;;;;;;4.18;2.42;;;;;;;19.72;48.10;95408.69;4988549;28;20034;-74
2021/10/20 07:42:57;;;;;;;3.60;2.22;;;;;;;19.59;48.24;95423.41;4988520;28;20076;-73
2021/10/20 07:45:24;;;;;;;4.50;2.00;;;;;;;19.77;47.92;95426.50;4973070;28;20042;-72
2021/10/20 07:47:50;;;;;;;4.53;1.90;;;;;;;20.13;47.73;95427.97;4984760;28;20041;-73
2021/10/20 07:50:17;;;;;;;6.03;2.30;;;;;;;20.09;47.37;95424.41;4979055;28;20026;-76
2021/10/20 07:52:48;;;;;;;10.23;1.98;;;;;;;19.33;49.00;95424.03;4978287;28;20066;-72
2021/10/20 07:55:15;;;;;;;3.67;2.47;;;;;;;19.22;49.60;95426.50;4970592;28;20450;-75
2021/10/20 07:57:40;;;;;;;3.85;1.90;;;;;;;19.74;48.12;95417.97;4970341;28;20133;-70
2021/10/20 08:00:07;;;;;;;6.03;2.50;;;;;;;19.64;48.56;95388.84;4968655;28;20121;-72
2021/10/20 08:02:32;;;;;;;7.05;1.95;;;;;;;20.14;48.41;95405.22;4971950;28;20569;-73
2021/10/20 08:04:58;;;;;;;3.10;1.67;;;;;;;20.13;47.58;95406.38;4969789;28;20035;-71
2021/10/20 08:07:23;;;;;;;3.90;1.80;;;;;;;20.12;48.02;95421.03;4977783;28;20126;-71
2021/10/20 08:09:48;;;;;;;5.05;1.88;;;;;;;20.36;47.45;95420.66;4983292;28;20433;-72
2021/10/20 08:12:16;;;;;;;4.68;1.65;;;;;;;20.43;47.29;95420.81;4989952;28;20026;-76
2021/10/20 08:14:42;;;;;;;2.20;1.55;;;;;;;20.34;47.40;95416.78;4991516;28;20592;-75
2021/10/20 08:17:09;;;;;;;3.78;1.55;;;;;;;20.17;47.63;95420.72;4990006;28;20043;-73
2021/10/20 08:19:34;;;;;;;3.40;1.23;;;;;;;19.66;48.64;95429.78;4970019;28;20579;-77
2021/10/20 08:22:00;;;;;;;2.00;1.00;;;;;;;19.89;48.78;95439.84;4976821;28;20086;-74
2021/10/20 08:24:25;;;;;;;1.98;1.30;;;;;;;19.63;48.41;95435.09;4978540;28;20049;-75
2021/10/20 08:26:51;;;;;;;1.63;1.00;;;;;;;19.97;46.93;95414.56;4969110;28;20023;-71
2021/10/20 08:29:16;;;;;;;1.67;1.30;;;;;;;20.45;46.71;95434.72;4972139;28;20031;-75
2021/10/20 08:31:42;;;;;;;2.45;0.88;;;;;;;20.68;46.52;95436.69;4970299;28;20540;-74
2021/10/20 08:34:07;;;;;;;2.13;1.77;;;;;;;20.56;46.00;95436.84;4969745;28;20039;-77
2021/10/20 08:36:33;;;;;;;4.10;1.20;;;;;;;20.99;45.69;95422.91;4981269;28;20038;-72
2021/10/20 08:38:58;;;;;;;2.70;1.50;;;;;;;21.20;44.95;95427.84;4989118;28;20469;-79
2021/10/20 08:41:24;;;;;;;2.97;1.10;;;;;;;21.03;42.96;95429.13;4993105;28;20030;-81
2021/10/20 08:43:50;;;;;;;1.20;0.90;;;;;;;20.75;40.62;95420.59;4987976;28;20420;-81
2021/10/20 08:46:21;;;;;;;1.63;0.90;;;;;;;20.79;40.63;95424.13;4972834;28;20104;-79
2021/10/20 08:48:46;;;;;;;2.13;1.00;;;;;;;21.76;39.31;95410.81;4979235;28;20035;-81
2021/10/20 08:51:13;;;;;;;1.45;0.85;;;;;;;21.29;39.92;95408.59;4970604;28;20046;-80
2021/10/20 08:53:38;;;;;;;2.05;1.10;;;;;;;22.13;40.27;95412.78;4976952;28;20022;-79
2021/10/20 08:56:04;;;;;;;1.52;1.08;;;;;;;21.62;39.97;95413.34;4989813;28;20053;-80
2021/10/20 08:58:30;;;;;;;3.00;1.08;;;;;;;20.81;40.32;95411.00;4990667;28;20047;-79
2021/10/20 09:00:56;;;;;;;2.17;0.90;;;;;;;20.93;40.30;95405.41;4989683;28;20416;-81
2021/10/20 09:03:21;;;;;;;1.73;1.10;;;;;;;22.09;37.95;95392.97;4983055;28;20049;-79
2021/10/20 09:05:47;;;;;;;4.13;1.08;;;;;;;22.38;38.38;95393.28;4971323;28;20035;-80
2021/10/20 09:08:13;;;;;;;1.80;0.80;;;;;;;22.04;37.98;95402.22;4973100;28;20489;-80
2021/10/20 09:10:39;;;;;;;1.08;0.80;;;;;;;21.53;38.35;95404.72;4969748;28;20157;-81
2021/10/20 09:13:04;;;;;;;1.33;0.73;;;;;;;22.51;37.46;95402.69;4954084;28;20513;-80
2021/10/20 09:15:35;;;;;;;2.58;1.08;;;;;;;21.35;38.17;95401.78;4970341;28;20031;-82
2021/10/20 09:18:05;;;;;;;0.63;0.63;;;;;;;21.49;37.95;95391.13;4971001;28;20022;-79
2021/10/20 09:20:37;;;;;;;1.27;0.90;;;;;;;22.03;37.78;95397.19;4972951;28;20030;-79
2021/10/20 09:23:05;;;;;;;1.92;1.02;;;;;;;23.00;35.45;95396.91;4971121;28;20126;-79
2021/10/20 09:25:52;;;;;;;0.95;0.85;;;;;;;21.76;34.75;95391.84;4970255;28;20572;-79
2021/10/20 09:28:31;;;;;;;4.75;1.20;;;;;;;21.59;34.83;95380.81;4971206;28;20065;-81
2021/10/20 09:31:01;;;;;;;1.48;1.20;;;;;;;21.56;34.03;95341.72;4968220;28;20578;-73
2021/10/20 09:33:27;;;;;;;1.65;1.40;;;;;;;21.69;33.97;95369.31;4968618;28;20053;-75
2021/10/20 09:35:52;;;;;;;1.60;1.23;;;;;;;21.55;34.75;95388.91;4978281;28;20031;-79
2021/10/20 09:38:20;;;;;;;2.33;1.48;;;;;;;22.23;33.71;95374.19;4973851;28;20033;-75
2021/10/20 09:40:48;;;;;;;3.53;1.30;;;;;;;22.36;34.45;95371.97;4970003;28;20038;-78
2021/10/20 09:43:17;;;;;;;3.17;1.30;;;;;;;22.44;33.86;95364.69;4988908;28;20054;-72
2021/10/20 09:45:44;;;;;;;3.00;1.30;;;;;;;22.72;33.97;95361.41;4990004;28;20096;-79
2021/10/20 09:48:15;;;;;;;4.47;1.38;;;;;;;22.90;33.66;95364.28;4985317;28;20042;-77
2021/10/20 09:50:55;;;;;;;1.08;1.05;;;;;;;23.60;32.91;95355.75;4970232;28;20066;-73
2021/10/20 09:53:21;;;;;;;4.03;1.20;;;;;;;23.67;32.43;95349.59;4980364;28;20046;-74
2021/10/20 09:55:46;;;;;;;1.25;0.90;;;;;;;24.22;32.70;95346.63;4994835;28;20042;-77
2021/10/20 09:58:15;;;;;;;2.05;1.27;;;;;;;23.45;32.73;95327.00;4995161;28;20035;-78
2021/10/20 10:00:42;;;;;;;1.88;1.73;;;;;;;23.47;33.72;95345.59;4994711;28;20031;-79
2021/10/20 10:03:08;;;;;;;1.45;1.35;;;;;;;23.23;33.37;95328.81;4991946;28;20635;-79
2021/10/20 10:05:34;;;;;;;1.25;1.10;;;;;;;23.46;32.57;95331.25;4984760;28;20058;-80
2021/10/20 10:08:00;;;;;;;1.35;1.20;;;;;;;23.73;32.44;95330.97;4989183;28;20237;-79
2021/10/20 10:10:26;;;;;;;1.38;1.27;;;;;;;23.28;32.68;95323.03;4994418;28;20492;-81
2021/10/20 10:13:06;;;;;;;1.67;1.40;;;;;;;23.14;33.04;95306.69;4994124;28;20046;-81
2021/10/20 10:15:36;;;;;;;4.13;1.75;;;;;;;23.55;32.83;95309.19;4994123;28;20045;-79
2021/10/20 10:18:03;;;;;;;2.05;1.00;;;;;;;24.40;31.98;95308.59;4992993;28;20088;-79
2021/10/20 10:20:31;;;;;;;1.40;0.80;;;;;;;24.63;32.05;95300.81;4976848;28;20035;-81
2021/10/20 10:23:02;;;;;;;1.48;1.10;;;;;;;24.68;32.26;95296.16;4974721;28;20049;-80
2021/10/20 10:25:36;;;;;;;1.97;1.30;;;;;;;24.90;31.59;95287.53;4974264;28;20046;-79
2021/10/20 10:28:07;;;;;;;1.10;1.00;;;;;;;23.90;32.30;95283.28;4974420;28;20089;-78
2021/10/20 10:30:45;;;;;;;1.50;1.08;;;;;;;24.79;31.45;95275.16;4974294;28;20109;-79
2021/10/20 10:33:25;;;;;;;1.17;1.08;;;;;;;25.04;31.31;95275.84;4970451;28;20374;-74
2021/10/20 10:36:08;;;;;;;1.63;1.52;;;;;;;24.95;34.37;95280.16;4955205;28;20511;-67
2021/10/20 10:38:39;;;;;;;2.08;1.30;;;;;;;25.04;30.70;95283.25;4973814;28;20113;-66
2021/10/20 10:41:19;;;;;;;3.15;1.60;;;;;;;24.84;29.85;95274.75;4971751;28;20060;-67
2021/10/20 10:44:10;;;;;;;1.70;1.52;;;;;;;24.47;30.92;95270.53;4971045;28;20047;-67
2021/10/20 10:46:39;;;;;;;1.40;1.30;;;;;;;24.64;30.31;95274.41;4971693;28;20530;-67
2021/10/20 10:49:34;;;;;;;2.63;1.25;;;;;;;24.82;29.85;95261.50;4969307;28;20051;-67
2021/10/20 10:52:32;;;;;;;1.60;1.35;;;;;;;24.66;30.63;95272.03;4975043;28;20640;-67
2021/10/20 10:57:53;;;;;;;1.42;1.33;;;;;;;25.19;30.03;95265.72;4968689;28;20042;-64
2021/10/20 11:00:19;;;;;;;1.48;1.38;;;;;;;24.62;30.29;95263.13;4968640;28;20045;-64
2021/10/20 11:02:51;;;;;;;4.03;1.63;;;;;;;24.55;29.80;95250.31;4972723;28;20027;-63
2021/10/20 11:05:20;;;;;;;2.10;1.30;;;;;;;24.74;29.56;95267.38;4962469;28;20059;-63
2021/10/20 11:07:47;;;;;;;1.60;1.50;;;;;;;24.57;30.29;95258.88;4965492;28;20047;-64
2021/10/20 11:10:14;;;;;;;1.50;1.10;;;;;;;23.56;31.56;95259.94;4959359;28;20043;-64
2021/10/20 11:12:40;;;;;;;1.65;1.40;;;;;;;23.49;31.88;95246.34;4951753;28;20051;-65
2021/10/20 11:15:06;;;;;;;1.77;1.33;;;;;;;24.41;31.15;95242.16;4951860;28;20035;-64
2021/10/20 11:17:32;;;;;;;3.38;1.77;;;;;;;24.36;31.64;95228.97;4953823;29;20122;-64
2021/10/20 11:20:04;;;;;;;1.48;1.33;;;;;;;24.14;31.08;95225.47;4971799;28;20389;-65
2021/10/20 11:22:29;;;;;;;3.85;1.40;;;;;;;24.77;30.29;95220.34;4954441;28;20149;-64
2021/10/20 11:24:54;;;;;;;1.60;1.42;;;;;;;24.56;31.10;95208.34;4956100;28;20630;-65
2021/10/20 11:27:23;;;;;;;1.30;1.20;;;;;;;23.68;32.14;95220.00;4951914;28;20036;-65
2021/10/20 11:29:53;;;;;;;1.33;1.23;;;;;;;23.97;32.06;95215.38;4951433;28;20486;-65
2021/10/20 11:32:20;;;;;;;2.38;1.67;;;;;;;24.51;30.75;95214.19;4953365;29;20019;-65
2021/10/20 11:34:46;;;;;;;3.38;1.50;;;;;;;25.11;31.00;95198.88;4968797;28;20121;-64